createdAt,value
2018-08-17T00:01:07.610Z,28.35
2018-08-17T00:03:36.159Z,30.70
2018-08-17T00:06:04.768Z,29.18
2018-08-17T00:08:33.325Z,27.45
2018-08-17T00:11:02.760Z,29.48
2018-08-17T00:13:31.182Z,27.52
2018-08-17T00:15:59.642Z,29.10
2018-08-17T00:18:27.984Z,29.25
2018-08-17T00:20:56.458Z,28.67
2018-08-17T00:23:24.827Z,29.32
2018-08-17T00:25:53.295Z,28.45
2018-08-17T00:28:21.828Z,28.73
2018-08-17T00:30:50.905Z,29.02
2018-08-17T00:33:19.364Z,26.17
2018-08-17T00:35:47.924Z,28.65
2018-08-17T00:38:16.399Z,30.17
2018-08-17T00:40:45.870Z,28.02
2018-08-17T00:43:14.406Z,28.57
2018-08-17T00:45:42.995Z,26.37
2018-08-17T00:48:11.638Z,27.90
2018-08-17T00:50:40.110Z,28.60
2018-08-17T00:53:08.519Z,27.15
2018-08-17T00:55:36.977Z,26.45
2018-08-17T00:58:05.368Z,28.12
2018-08-17T01:00:33.801Z,28.60
2018-08-17T01:03:02.239Z,27.37
2018-08-17T01:05:30.602Z,25.08
2018-08-17T01:07:59.042Z,29.65
2018-08-17T01:10:27.462Z,27.15
2018-08-17T01:12:56.074Z,29.45
2018-08-17T01:15:24.630Z,29.25
2018-08-17T01:17:53.151Z,27.07
2018-08-17T01:20:21.516Z,27.52
2018-08-17T01:22:49.982Z,28.60
2018-08-17T01:25:18.387Z,26.87
2018-08-17T01:27:46.848Z,26.97
2018-08-17T01:30:15.734Z,27.85
2018-08-17T01:32:44.219Z,28.17
2018-08-17T01:35:12.606Z,26.45
2018-08-17T01:37:41.390Z,26.85
2018-08-17T01:40:09.795Z,28.80
2018-08-17T01:42:38.235Z,26.15
2018-08-17T01:45:06.699Z,26.00
2018-08-17T01:47:35.082Z,26.02
2018-08-17T01:50:03.553Z,25.15
2018-08-17T01:52:31.893Z,25.25
2018-08-17T01:55:00.326Z,26.27
2018-08-17T01:57:28.703Z,26.30
2018-08-17T01:59:57.136Z,26.07
2018-08-17T02:02:25.543Z,26.02
2018-08-17T02:04:53.922Z,26.95
2018-08-17T02:07:22.403Z,27.30
2018-08-17T02:09:50.858Z,26.40
2018-08-17T02:12:19.256Z,26.95
2018-08-17T02:14:47.736Z,26.52
2018-08-17T02:17:16.097Z,24.60
2018-08-17T02:19:44.476Z,24.80
2018-08-17T02:22:12.867Z,26.17
2018-08-17T02:24:41.266Z,23.65
2018-08-17T02:27:09.666Z,26.60
2018-08-17T02:29:38.026Z,27.20
2018-08-17T02:32:06.596Z,26.48
2018-08-17T02:34:35.026Z,26.62
2018-08-17T02:37:03.513Z,26.20
2018-08-17T02:39:31.892Z,29.15
2018-08-17T02:42:00.298Z,30.72
2018-08-17T02:44:28.777Z,27.60
2018-08-17T02:46:57.188Z,29.12
2018-08-17T02:49:25.598Z,26.77
2018-08-17T02:51:53.991Z,27.73
2018-08-17T02:54:22.374Z,26.42
2018-08-17T02:56:50.755Z,26.90
2018-08-17T02:59:19.219Z,27.15
2018-08-17T03:01:47.698Z,26.73
2018-08-17T03:04:16.135Z,26.02
2018-08-17T03:06:44.528Z,25.02
2018-08-17T03:09:13.030Z,24.05
2018-08-17T03:11:41.808Z,24.43
2018-08-17T03:14:10.262Z,24.18
2018-08-17T03:16:38.642Z,25.75
2018-08-17T03:19:07.112Z,23.73
2018-08-17T03:21:35.542Z,24.25
2018-08-17T03:24:04.032Z,23.52
2018-08-17T03:26:32.407Z,24.82
2018-08-17T03:29:00.849Z,24.30
2018-08-17T03:31:29.203Z,23.77
2018-08-17T03:33:57.570Z,25.05
2018-08-17T03:36:26.034Z,26.25
2018-08-17T03:38:54.422Z,24.45
2018-08-17T03:41:22.834Z,25.48
2018-08-17T03:43:51.271Z,26.60
2018-08-17T03:46:19.690Z,26.30
2018-08-17T03:48:48.124Z,26.45
2018-08-17T03:51:16.578Z,27.02
2018-08-17T03:53:45.103Z,23.77
2018-08-17T03:56:13.515Z,25.30
2018-08-17T03:58:41.907Z,25.80
2018-08-17T04:01:10.316Z,26.70
2018-08-17T04:03:38.683Z,25.55
2018-08-17T04:06:07.104Z,24.15
2018-08-17T04:08:35.458Z,27.05
2018-08-17T04:11:03.862Z,26.12
2018-08-17T04:13:32.430Z,26.48
2018-08-17T04:16:01.612Z,26.20
2018-08-17T04:18:30.369Z,27.35
2018-08-17T04:20:59.393Z,26.02
2018-08-17T04:23:27.796Z,27.93
2018-08-17T04:25:56.278Z,29.32
2018-08-17T04:28:24.996Z,28.70
2018-08-17T04:30:53.470Z,29.07
2018-08-17T04:33:21.910Z,28.32
2018-08-17T04:35:50.299Z,28.47
2018-08-17T04:38:18.734Z,30.48
2018-08-17T04:40:47.099Z,32.38
2018-08-17T04:43:16.063Z,33.10
2018-08-17T04:45:44.406Z,33.13
2018-08-17T04:48:12.803Z,33.70
2018-08-17T04:50:41.795Z,34.70
2018-08-17T04:53:10.368Z,35.95
2018-08-17T04:55:39.895Z,36.48
2018-08-17T04:58:08.360Z,38.98
2018-08-17T05:00:36.762Z,37.33
2018-08-17T05:03:05.169Z,36.75
2018-08-17T05:05:33.577Z,37.28
2018-08-17T05:08:01.959Z,39.55
2018-08-17T05:10:30.375Z,38.28
2018-08-17T05:12:58.866Z,37.45
2018-08-17T05:15:27.303Z,39.83
2018-08-17T05:17:55.806Z,38.60
2018-08-17T05:20:24.411Z,36.90
2018-08-17T05:22:52.851Z,40.90
2018-08-17T05:25:21.212Z,38.15
2018-08-17T05:27:49.625Z,40.00
2018-08-17T05:30:18.229Z,36.88
2018-08-17T05:32:46.673Z,38.65
2018-08-17T05:35:15.186Z,36.77
2018-08-17T05:37:43.754Z,37.53
2018-08-17T05:40:12.306Z,39.80
2018-08-17T05:42:40.751Z,36.55
2018-08-17T05:45:09.949Z,37.40
2018-08-17T05:47:38.498Z,35.80
2018-08-17T05:50:07.718Z,35.50
2018-08-17T05:52:36.251Z,37.15
2018-08-17T05:55:05.106Z,40.90
2018-08-17T05:57:33.775Z,38.65
2018-08-17T06:00:02.191Z,38.02
2018-08-17T06:02:30.632Z,37.20
2018-08-17T06:04:59.069Z,35.55
2018-08-17T06:07:27.516Z,36.50
2018-08-17T06:09:55.981Z,36.83
2018-08-17T06:12:24.969Z,36.63
2018-08-17T06:14:53.402Z,34.00
2018-08-17T06:17:21.810Z,33.02
2018-08-17T06:19:50.194Z,34.27
2018-08-17T06:22:21.355Z,34.85
2018-08-17T06:24:51.070Z,33.02
2018-08-17T06:27:19.867Z,35.95
2018-08-17T06:29:48.639Z,36.80
2018-08-17T06:32:17.075Z,34.53
2018-08-17T06:34:45.524Z,33.98
2018-08-17T06:37:13.995Z,34.78
2018-08-17T06:39:42.322Z,35.65
2018-08-17T06:42:10.740Z,36.10
2018-08-17T06:44:39.208Z,35.08
2018-08-17T06:47:07.699Z,36.15
2018-08-17T06:49:36.151Z,34.43
2018-08-17T06:52:04.611Z,37.00
2018-08-17T06:54:32.990Z,34.58
2018-08-17T06:57:01.464Z,34.25
2018-08-17T06:59:29.886Z,34.55
2018-08-17T07:01:58.308Z,35.35
2018-08-17T07:04:26.703Z,34.10
2018-08-17T07:06:55.121Z,35.45
2018-08-17T07:09:23.617Z,33.83
2018-08-17T07:11:51.962Z,33.55
2018-08-17T07:14:20.370Z,34.45
2018-08-17T07:16:48.806Z,34.08
2018-08-17T07:19:17.203Z,33.40
2018-08-17T07:21:45.611Z,30.57
2018-08-17T07:24:14.036Z,31.70
2018-08-17T07:26:42.427Z,33.33
2018-08-17T07:29:10.983Z,33.95
2018-08-17T07:31:40.468Z,30.85
2018-08-17T07:34:08.924Z,31.93
2018-08-17T07:36:37.431Z,31.87
2018-08-17T07:39:07.642Z,31.82
2018-08-17T07:41:36.321Z,31.02
2018-08-17T07:44:05.010Z,29.37
2018-08-17T07:46:33.467Z,33.40
2018-08-17T07:49:02.133Z,29.82
2018-08-17T07:51:30.648Z,31.33
2018-08-17T07:54:00.308Z,30.57
2018-08-17T07:56:28.944Z,30.10
2018-08-17T07:58:57.371Z,27.90
2018-08-17T08:01:25.722Z,29.90
2018-08-17T08:03:54.152Z,31.12
2018-08-17T08:06:22.562Z,29.90
2018-08-17T08:08:51.084Z,28.62
2018-08-17T08:11:19.507Z,29.07
2018-08-17T08:13:48.103Z,27.00
2018-08-17T08:16:16.563Z,29.23
2018-08-17T08:18:44.968Z,27.87
2018-08-17T08:21:13.880Z,27.32
2018-08-17T08:23:42.247Z,27.40
2018-08-17T08:26:11.899Z,26.25
2018-08-17T08:28:40.454Z,26.12
2018-08-17T08:31:08.917Z,26.97
2018-08-17T08:33:37.348Z,26.25
2018-08-17T08:36:05.831Z,25.90
2018-08-17T08:38:34.366Z,26.57
2018-08-17T08:41:02.819Z,27.93
2018-08-17T08:43:31.354Z,27.15
2018-08-17T08:45:59.870Z,24.55
2018-08-17T08:48:28.743Z,29.02
2018-08-17T08:50:57.182Z,26.17
2018-08-17T08:53:25.612Z,26.97
2018-08-17T08:55:55.080Z,27.15
2018-08-17T08:58:23.564Z,26.77
2018-08-17T09:00:51.941Z,25.97
2018-08-17T09:03:21.379Z,26.30
2018-08-17T09:05:49.904Z,28.02
2018-08-17T09:08:18.412Z,28.65
2018-08-17T09:10:47.461Z,28.40
2018-08-17T09:13:15.990Z,27.75
2018-08-17T09:15:44.436Z,28.52
2018-08-17T09:18:12.984Z,30.97
2018-08-17T09:20:41.471Z,31.17
2018-08-17T09:23:09.916Z,31.00
2018-08-17T09:25:38.343Z,29.50
2018-08-17T09:28:06.838Z,29.05
2018-08-17T09:30:35.423Z,28.42
2018-08-17T09:33:04.103Z,28.55
2018-08-17T09:35:32.732Z,26.40
2018-08-17T09:38:01.303Z,28.67
2018-08-17T09:40:29.894Z,28.75
2018-08-17T09:42:58.465Z,29.15
2018-08-17T09:45:27.002Z,28.27
2018-08-17T09:47:55.475Z,30.25
2018-08-17T09:50:24.080Z,30.25
2018-08-17T09:52:52.524Z,30.27
2018-08-17T09:55:21.091Z,29.87
2018-08-17T09:57:49.492Z,30.30
2018-08-17T10:00:17.938Z,29.63
2018-08-17T10:02:51.482Z,29.02
2018-08-17T10:05:26.122Z,27.80
2018-08-17T10:07:59.795Z,26.45
2018-08-17T10:10:28.374Z,23.92
2018-08-17T10:12:56.851Z,21.80
2018-08-17T10:15:26.131Z,18.23
2018-08-17T10:17:54.751Z,18.90
2018-08-17T10:20:23.993Z,20.48
2018-08-17T10:22:52.509Z,17.27
2018-08-17T10:25:22.232Z,16.73
2018-08-17T10:27:52.801Z,16.15
2018-08-17T10:30:21.983Z,15.38
2018-08-17T10:32:55.264Z,15.85
2018-08-17T10:35:24.840Z,14.78
2018-08-17T10:37:55.376Z,13.43
2018-08-17T10:40:24.477Z,16.00
2018-08-17T10:42:52.980Z,17.57
2018-08-17T10:45:22.699Z,17.23
2018-08-17T10:47:51.858Z,17.67
2018-08-17T10:50:22.280Z,16.35
2018-08-17T10:52:52.767Z,16.87
2018-08-17T10:55:22.445Z,16.80
2018-08-17T10:57:51.146Z,17.57
2018-08-17T11:00:21.029Z,15.45
2018-08-17T11:02:50.232Z,15.48
2018-08-17T11:05:19.135Z,14.50
2018-08-17T11:07:48.823Z,17.05
2018-08-17T11:10:17.303Z,16.35
2018-08-17T11:12:47.527Z,14.70
2018-08-17T11:15:15.957Z,14.43
2018-08-17T11:17:45.518Z,14.07
2018-08-17T11:20:15.852Z,14.85
2018-08-17T11:22:45.061Z,15.48
2018-08-17T11:25:13.607Z,16.93
2018-08-17T11:27:42.016Z,16.27
2018-08-17T11:30:12.326Z,16.95
2018-08-17T11:32:41.351Z,17.87
2018-08-17T11:35:09.826Z,17.65
2018-08-17T11:37:38.447Z,14.63
2018-08-17T11:40:08.735Z,14.85
2018-08-17T11:42:44.280Z,15.53
2018-08-17T11:45:16.103Z,17.20
2018-08-17T11:47:45.315Z,15.68
2018-08-17T11:50:16.300Z,17.90
2018-08-17T11:52:52.962Z,19.77
2018-08-17T11:55:22.422Z,18.80
2018-08-17T11:57:51.167Z,21.07
2018-08-17T12:00:20.593Z,19.12
2018-08-17T12:02:49.180Z,19.95
2018-08-17T12:05:17.966Z,18.87
2018-08-17T12:07:47.268Z,19.10
2018-08-17T12:10:15.976Z,17.20
2018-08-17T12:12:45.272Z,18.40
2018-08-17T12:15:14.616Z,17.87
2018-08-17T12:17:43.089Z,17.60
2018-08-17T12:20:11.605Z,19.42
2018-08-17T12:22:40.032Z,18.70
2018-08-17T12:25:09.128Z,17.45
2018-08-17T12:27:37.645Z,18.20
2018-08-17T12:30:07.362Z,16.90
2018-08-17T12:32:35.884Z,17.37
2018-08-17T12:35:04.469Z,16.05
2018-08-17T12:37:32.866Z,15.88
2018-08-17T12:40:01.354Z,16.20
2018-08-17T12:42:29.982Z,16.90
2018-08-17T12:45:02.761Z,16.62
2018-08-17T12:47:31.801Z,15.95
2018-08-17T12:50:00.252Z,16.27
2018-08-17T12:52:28.788Z,16.32
2018-08-17T12:54:57.234Z,16.80
2018-08-17T12:57:29.938Z,18.12
2018-08-17T13:00:11.304Z,17.67
2018-08-17T13:02:40.065Z,19.05
2018-08-17T13:05:08.676Z,17.57
2018-08-17T13:07:37.183Z,16.90
2018-08-17T13:10:06.382Z,18.32
2018-08-17T13:12:34.892Z,19.05
2018-08-17T13:15:04.493Z,18.90
2018-08-17T13:17:48.630Z,19.32
2018-08-17T13:20:17.840Z,21.85
2018-08-17T13:22:46.353Z,20.65
2018-08-17T13:25:14.876Z,19.70
2018-08-17T13:27:43.351Z,19.85
2018-08-17T13:30:14.377Z,22.55
2018-08-17T13:32:43.744Z,19.65
2018-08-17T13:35:14.085Z,20.52
2018-08-17T13:37:43.165Z,20.92
2018-08-17T13:40:12.044Z,19.23
2018-08-17T13:42:40.645Z,19.02
2018-08-17T13:45:10.240Z,19.82
2018-08-17T13:47:39.738Z,19.30
2018-08-17T13:50:08.253Z,20.08
2018-08-17T13:52:36.769Z,19.23
2018-08-17T13:55:05.495Z,19.92
2018-08-17T13:57:33.959Z,20.00
2018-08-17T14:00:02.552Z,20.45
2018-08-17T14:02:31.079Z,20.60
2018-08-17T14:04:59.616Z,21.73
2018-08-17T14:07:28.175Z,20.88
2018-08-17T14:09:56.766Z,19.80
2018-08-17T14:12:25.336Z,19.50
2018-08-17T14:14:55.032Z,18.42
2018-08-17T14:17:24.965Z,19.27
2018-08-17T14:19:54.776Z,20.77
2018-08-17T14:22:24.642Z,19.10
2018-08-17T14:24:54.662Z,19.40
2018-08-17T14:27:24.727Z,19.75
2018-08-17T14:29:54.396Z,19.57
2018-08-17T14:32:24.576Z,19.92
2018-08-17T14:34:54.944Z,19.60
2018-08-17T14:37:25.013Z,21.65
2018-08-17T14:39:53.642Z,20.02
2018-08-17T14:42:22.103Z,20.62
2018-08-17T14:44:50.702Z,19.92
2018-08-17T14:47:19.722Z,20.15
2018-08-17T14:49:48.248Z,20.55
2018-08-17T14:52:16.767Z,19.12
2018-08-17T14:54:45.337Z,18.35
2018-08-17T14:57:13.914Z,19.90
2018-08-17T14:59:42.504Z,22.90
2018-08-17T15:02:11.031Z,18.80
2018-08-17T15:04:41.306Z,18.48
2018-08-17T15:07:09.882Z,20.40
2018-08-17T15:09:38.874Z,19.60
2018-08-17T15:12:07.492Z,18.87
2018-08-17T15:14:35.897Z,20.85
2018-08-17T15:17:04.502Z,18.80
2018-08-17T15:19:32.916Z,19.10
2018-08-17T15:22:01.673Z,19.85
2018-08-17T15:24:31.155Z,19.95
2018-08-17T15:26:59.812Z,19.12
2018-08-17T15:29:28.348Z,20.68
2018-08-17T15:31:56.828Z,19.05
2018-08-17T15:34:25.482Z,20.02
2018-08-17T15:36:54.008Z,20.05
2018-08-17T15:39:22.622Z,19.98
2018-08-17T15:41:51.281Z,19.95
2018-08-17T15:44:23.911Z,19.30
2018-08-17T15:46:52.768Z,20.40
2018-08-17T15:49:27.322Z,18.45
2018-08-17T15:51:55.891Z,20.00
2018-08-17T15:54:24.968Z,20.37
2018-08-17T15:56:53.665Z,21.30
2018-08-17T15:59:23.623Z,20.57
2018-08-17T16:01:52.682Z,20.60
2018-08-17T16:04:21.141Z,21.42
2018-08-17T16:06:49.664Z,20.95
2018-08-17T16:11:58.399Z,22.50
2018-08-17T16:14:26.912Z,21.45
2018-08-17T16:16:55.538Z,21.75
2018-08-17T16:19:23.993Z,22.27
2018-08-17T16:21:52.483Z,22.98
2018-08-17T16:24:20.973Z,20.68
2018-08-17T16:26:49.539Z,20.60
2018-08-17T16:29:17.979Z,21.68
2018-08-17T16:31:46.496Z,23.25
2018-08-17T16:34:15.013Z,21.90
2018-08-17T16:36:43.475Z,22.80
2018-08-17T16:39:15.132Z,23.35
2018-08-17T16:41:43.895Z,23.07
2018-08-17T16:44:12.770Z,21.73
2018-08-17T16:46:42.494Z,22.65
2018-08-17T16:49:10.950Z,22.98
2018-08-17T16:51:40.130Z,22.02
2018-08-17T16:54:08.673Z,24.75
2018-08-17T16:56:37.463Z,22.13
2018-08-17T16:59:06.242Z,23.32
2018-08-17T17:01:34.674Z,23.85
2018-08-17T17:04:03.231Z,22.85
2018-08-17T17:06:31.902Z,22.60
2018-08-17T17:09:01.815Z,21.82
2018-08-17T17:11:30.428Z,23.38
2018-08-17T17:14:00.486Z,21.95
2018-08-17T17:16:49.414Z,23.65
2018-08-17T17:19:19.641Z,22.17
2018-08-17T17:21:49.277Z,20.30
2018-08-17T17:24:18.370Z,21.00
2018-08-17T17:26:46.818Z,21.05
2018-08-17T17:29:15.295Z,21.73
2018-08-17T17:31:47.220Z,20.23
2018-08-17T17:34:15.615Z,20.50
2018-08-17T17:36:44.064Z,21.57
2018-08-17T17:39:13.932Z,20.92
2018-08-17T17:41:43.079Z,21.15
2018-08-17T17:44:11.573Z,21.60
2018-08-17T17:46:40.617Z,21.20
2018-08-17T17:49:09.554Z,20.95
2018-08-17T17:51:38.061Z,23.25
2018-08-17T17:54:06.667Z,21.42
2018-08-17T17:56:35.178Z,24.07
2018-08-17T17:59:09.019Z,22.30
2018-08-17T18:01:37.471Z,21.57
2018-08-17T18:04:06.048Z,20.62
2018-08-17T18:06:34.546Z,20.25
2018-08-17T18:09:03.058Z,20.92
2018-08-17T18:11:31.506Z,19.45
2018-08-17T18:14:00.044Z,19.52
2018-08-17T18:16:28.698Z,21.73
2018-08-17T18:18:57.155Z,21.02
2018-08-17T18:21:30.243Z,21.15
2018-08-17T18:24:02.799Z,20.27
2018-08-17T18:26:31.262Z,20.72
2018-08-17T18:28:59.842Z,20.68
2018-08-17T18:31:28.322Z,20.60
2018-08-17T18:33:57.064Z,20.25
2018-08-17T18:36:25.619Z,21.12
2018-08-17T18:38:54.206Z,20.05
2018-08-17T18:41:22.791Z,19.90
2018-08-17T18:43:51.293Z,20.40
2018-08-17T18:46:19.883Z,21.12
2018-08-17T18:48:48.502Z,18.73
2018-08-17T18:51:17.025Z,20.23
2018-08-17T18:53:45.620Z,19.98
2018-08-17T18:56:14.278Z,20.40
2018-08-17T18:58:42.757Z,20.25
2018-08-17T19:01:11.292Z,20.85
2018-08-17T19:03:39.885Z,20.32
2018-08-17T19:06:08.492Z,18.85
2018-08-17T19:08:37.306Z,19.73
2018-08-17T19:11:05.870Z,21.10
2018-08-17T19:13:34.569Z,21.02
2018-08-17T19:16:03.148Z,21.48
2018-08-17T19:18:32.753Z,20.92
2018-08-17T19:21:06.273Z,21.35
2018-08-17T19:23:35.090Z,20.10
2018-08-17T19:26:03.723Z,21.33
2018-08-17T19:28:32.310Z,21.25
2018-08-17T19:31:01.230Z,21.77
2018-08-17T19:33:29.823Z,21.75
2018-08-17T19:35:58.604Z,20.62
2018-08-17T19:38:27.220Z,22.00
2018-08-17T19:40:55.890Z,22.37
2018-08-17T19:43:24.471Z,21.45
2018-08-17T19:45:52.997Z,22.27
2018-08-17T19:48:21.511Z,22.82
2018-08-17T19:50:50.023Z,22.82
2018-08-17T19:53:18.580Z,23.60
2018-08-17T19:55:47.138Z,23.25
2018-08-17T19:58:16.206Z,22.32
2018-08-17T20:00:45.079Z,23.52
2018-08-17T20:03:13.986Z,23.90
2018-08-17T20:05:42.806Z,21.75
2018-08-17T20:08:11.315Z,22.20
2018-08-17T20:10:39.988Z,22.45
2018-08-17T20:13:08.634Z,22.00
2018-08-17T20:15:37.330Z,22.02
2018-08-17T20:18:06.664Z,24.32
2018-08-17T20:20:35.300Z,24.18
2018-08-17T20:23:04.420Z,24.12
2018-08-17T20:25:32.973Z,21.40
2018-08-17T20:28:01.623Z,22.40
2018-08-17T20:30:30.360Z,21.20
2018-08-17T20:33:00.961Z,21.00
2018-08-17T20:35:31.048Z,23.35
2018-08-17T20:37:59.771Z,24.02
2018-08-17T20:40:29.347Z,23.05
2018-08-17T20:42:58.086Z,22.60
2018-08-17T20:45:26.879Z,23.67
2018-08-17T20:47:55.558Z,23.32
2018-08-17T20:50:25.869Z,24.12
2018-08-17T20:52:58.740Z,22.65
2018-08-17T20:55:28.205Z,23.65
2018-08-17T20:57:57.542Z,24.10
2018-08-17T21:00:27.628Z,23.62
2018-08-17T21:02:56.845Z,23.60
2018-08-17T21:05:26.628Z,23.75
2018-08-17T21:07:55.521Z,23.27
2018-08-17T21:10:24.465Z,24.50
2018-08-17T21:12:52.937Z,23.42
2018-08-17T21:15:21.427Z,23.67
2018-08-17T21:17:50.142Z,23.12
2018-08-17T21:20:18.848Z,24.25
2018-08-17T21:22:47.487Z,24.10
2018-08-17T21:25:16.142Z,24.55
2018-08-17T21:27:44.653Z,22.22
2018-08-17T21:30:13.375Z,24.90
2018-08-17T21:32:42.980Z,23.50
2018-08-17T21:35:11.552Z,24.65
2018-08-17T21:37:40.741Z,22.17
2018-08-17T21:40:15.683Z,24.92
2018-08-17T21:42:45.283Z,23.80
2018-08-17T21:45:14.816Z,22.58
2018-08-17T21:47:44.115Z,24.15
2018-08-17T21:50:14.512Z,23.57
2018-08-17T21:52:43.771Z,24.02
2018-08-17T21:55:12.625Z,23.77
2018-08-17T21:57:42.585Z,23.38
2018-08-17T22:00:19.719Z,23.12
2018-08-17T22:02:48.376Z,23.52
2018-08-17T22:05:21.000Z,23.25
2018-08-17T22:07:49.596Z,22.98
2018-08-17T22:10:18.166Z,23.27
2018-08-17T22:12:46.769Z,23.02
2018-08-17T22:15:15.603Z,23.25
2018-08-17T22:17:44.161Z,23.40
2018-08-17T22:20:13.541Z,23.57
2018-08-17T22:22:42.541Z,23.98
2018-08-17T22:25:12.938Z,22.35
2018-08-17T22:27:41.598Z,23.25
2018-08-17T22:30:21.247Z,23.12
2018-08-17T22:32:49.887Z,23.07
2018-08-17T22:35:18.553Z,23.80
2018-08-17T22:37:47.028Z,22.07
2018-08-17T22:40:15.780Z,23.10
2018-08-17T22:42:46.633Z,23.07
2018-08-17T22:45:16.038Z,23.50
2018-08-17T22:47:44.944Z,22.42
2018-08-17T22:50:13.387Z,23.35
2018-08-17T22:52:41.956Z,23.25
2018-08-17T22:55:10.612Z,23.30
2018-08-17T22:57:39.162Z,23.05
2018-08-17T23:00:16.577Z,23.35
2018-08-17T23:02:45.948Z,23.65
2018-08-17T23:05:16.551Z,24.15
2018-08-17T23:07:45.174Z,23.45
2018-08-17T23:10:18.102Z,23.50
2018-08-17T23:12:47.786Z,23.62
2018-08-17T23:15:16.245Z,23.67
2018-08-17T23:17:46.442Z,23.25
2018-08-17T23:20:15.247Z,23.25
2018-08-17T23:22:50.158Z,22.73
2018-08-17T23:25:18.691Z,22.65
2018-08-17T23:27:47.929Z,21.90
2018-08-17T23:30:16.363Z,24.55
2018-08-17T23:32:45.369Z,23.77
2018-08-17T23:35:13.808Z,24.00
2018-08-17T23:37:42.286Z,22.07
2018-08-17T23:40:10.839Z,23.65
2018-08-17T23:42:39.342Z,22.75
2018-08-17T23:45:10.859Z,22.55
2018-08-17T23:47:39.352Z,23.45
2018-08-17T23:50:09.502Z,24.37
2018-08-17T23:52:38.072Z,23.45
2018-08-17T23:55:07.391Z,24.40
2018-08-17T23:57:36.079Z,23.18
